sensor_id;sensor_type;location;lat;lon;timestamp;pressure;altitude;pressure_sealevel;temperature;humidity
13407;BME280;6774;48.208;10.766;2023-03-23T00:00:53;95108.53;;;8.98;75.35
13407;BME280;6774;48.208;10.766;2023-03-23T00:03:20;95113.78;;;9.19;74.24
13407;BME280;6774;48.208;10.766;2023-03-23T00:05:47;95113.06;;;9.32;74.03
13407;BME280;6774;48.208;10.766;2023-03-23T00:08:16;95103.47;;;9.46;73.71
13407;BME280;6774;48.208;10.766;2023-03-23T00:10:43;95103.53;;;9.52;73.58
13407;BME280;6774;48.208;10.766;2023-03-23T00:13:10;95106.47;;;9.64;73.16
13407;BME280;6774;48.208;10.766;2023-03-23T00:15:39;95116.69;;;9.24;73.12
13407;BME280;6774;48.208;10.766;2023-03-23T00:18:07;95101.00;;;9.16;73.67
13407;BME280;6774;48.208;10.766;2023-03-23T00:20:33;95108.03;;;9.09;73.31
13407;BME280;6774;48.208;10.766;2023-03-23T00:23:06;95112.63;;;8.86;73.81
13407;BME280;6774;48.208;10.766;2023-03-23T00:25:33;95108.88;;;8.73;74.12
13407;BME280;6774;48.208;10.766;2023-03-23T00:27:59;95110.72;;;8.58;75.07
13407;BME280;6774;48.208;10.766;2023-03-23T00:30:28;95111.91;;;8.41;75.35
13407;BME280;6774;48.208;10.766;2023-03-23T00:32:56;95112.91;;;8.40;75.85
13407;BME280;6774;48.208;10.766;2023-03-23T00:35:23;95108.38;;;8.34;75.98
13407;BME280;6774;48.208;10.766;2023-03-23T00:37:50;95107.91;;;8.30;75.85
13407;BME280;6774;48.208;10.766;2023-03-23T00:40:18;95108.56;;;8.17;76.83
13407;BME280;6774;48.208;10.766;2023-03-23T00:42:45;95101.06;;;8.14;77.34
13407;BME280;6774;48.208;10.766;2023-03-23T00:45:13;95101.13;;;8.21;76.80
13407;BME280;6774;48.208;10.766;2023-03-23T00:47:40;95094.44;;;8.18;77.52
13407;BME280;6774;48.208;10.766;2023-03-23T00:50:13;95106.56;;;8.19;77.28
13407;BME280;6774;48.208;10.766;2023-03-23T00:52:40;95102.41;;;8.10;77.85
13407;BME280;6774;48.208;10.766;2023-03-23T00:55:07;95101.59;;;8.10;77.77
13407;BME280;6774;48.208;10.766;2023-03-23T00:57:34;95094.72;;;8.09;77.46
13407;BME280;6774;48.208;10.766;2023-03-23T01:00:00;95102.16;;;8.05;77.22
13407;BME280;6774;48.208;10.766;2023-03-23T01:02:29;95093.53;;;7.96;77.75
13407;BME280;6774;48.208;10.766;2023-03-23T01:04:55;95093.06;;;7.93;78.19
13407;BME280;6774;48.208;10.766;2023-03-23T01:07:25;95115.34;;;7.82;78.57
13407;BME280;6774;48.208;10.766;2023-03-23T01:09:53;95110.81;;;7.76;79.21
13407;BME280;6774;48.208;10.766;2023-03-23T01:12:20;95097.16;;;7.81;78.94
13407;BME280;6774;48.208;10.766;2023-03-23T01:14:49;95097.44;;;8.01;79.02
13407;BME280;6774;48.208;10.766;2023-03-23T01:17:16;95086.34;;;8.20;79.06
13407;BME280;6774;48.208;10.766;2023-03-23T01:19:44;95085.00;;;8.39;78.28
13407;BME280;6774;48.208;10.766;2023-03-23T01:22:10;95071.75;;;8.47;77.41
13407;BME280;6774;48.208;10.766;2023-03-23T01:24:38;95063.94;;;8.53;77.41
13407;BME280;6774;48.208;10.766;2023-03-23T01:27:05;95060.81;;;8.65;77.66
13407;BME280;6774;48.208;10.766;2023-03-23T01:29:33;95072.78;;;8.67;77.17
13407;BME280;6774;48.208;10.766;2023-03-23T01:32:00;95078.03;;;8.67;76.89
13407;BME280;6774;48.208;10.766;2023-03-23T01:34:27;95071.53;;;8.63;77.17
13407;BME280;6774;48.208;10.766;2023-03-23T01:36:54;95069.63;;;8.57;76.79
13407;BME280;6774;48.208;10.766;2023-03-23T01:39:21;95051.19;;;8.50;77.48
13407;BME280;6774;48.208;10.766;2023-03-23T01:41:49;95054.84;;;8.35;77.93
13407;BME280;6774;48.208;10.766;2023-03-23T01:47:24;95056.25;;;8.22;78.89
13407;BME280;6774;48.208;10.766;2023-03-23T01:49:54;95057.16;;;8.30;78.12
13407;BME280;6774;48.208;10.766;2023-03-23T01:52:23;95051.28;;;8.27;78.15
13407;BME280;6774;48.208;10.766;2023-03-23T01:54:58;95053.28;;;8.25;78.24
13407;BME280;6774;48.208;10.766;2023-03-23T01:57:26;95052.00;;;8.21;78.64
13407;BME280;6774;48.208;10.766;2023-03-23T01:59:57;95053.63;;;8.22;78.91
13407;BME280;6774;48.208;10.766;2023-03-23T02:02:40;95064.78;;;8.24;78.87
13407;BME280;6774;48.208;10.766;2023-03-23T02:05:12;95054.28;;;8.24;78.98
13407;BME280;6774;48.208;10.766;2023-03-23T02:07:42;95054.91;;;8.26;79.50
13407;BME280;6774;48.208;10.766;2023-03-23T02:10:09;95048.38;;;8.22;80.09
13407;BME280;6774;48.208;10.766;2023-03-23T02:12:38;95040.75;;;8.27;79.79
13407;BME280;6774;48.208;10.766;2023-03-23T02:15:05;95044.00;;;8.30;79.80
13407;BME280;6774;48.208;10.766;2023-03-23T02:17:36;95041.69;;;8.35;79.75
13407;BME280;6774;48.208;10.766;2023-03-23T02:20:13;95039.31;;;8.40;79.79
13407;BME280;6774;48.208;10.766;2023-03-23T02:22:55;95045.22;;;8.42;79.84
13407;BME280;6774;48.208;10.766;2023-03-23T02:25:36;95039.94;;;8.42;80.31
13407;BME280;6774;48.208;10.766;2023-03-23T02:28:29;95032.94;;;8.49;80.17
13407;BME280;6774;48.208;10.766;2023-03-23T02:31:27;95033.44;;;8.59;79.67
13407;BME280;6774;48.208;10.766;2023-03-23T02:34:03;95043.03;;;8.67;79.74
13407;BME280;6774;48.208;10.766;2023-03-23T02:36:35;95040.84;;;8.70;79.92
13407;BME280;6774;48.208;10.766;2023-03-23T02:39:09;95038.78;;;8.66;79.65
13407;BME280;6774;48.208;10.766;2023-03-23T02:41:41;95037.97;;;8.65;79.65
13407;BME280;6774;48.208;10.766;2023-03-23T02:44:10;95047.34;;;8.53;79.77
13407;BME280;6774;48.208;10.766;2023-03-23T02:46:39;95052.28;;;8.41;80.97
13407;BME280;6774;48.208;10.766;2023-03-23T02:49:09;95053.25;;;8.40;81.43
13407;BME280;6774;48.208;10.766;2023-03-23T02:51:38;95054.53;;;8.30;82.03
13407;BME280;6774;48.208;10.766;2023-03-23T02:54:07;95043.56;;;8.41;81.70
13407;BME280;6774;48.208;10.766;2023-03-23T02:56:34;95055.06;;;8.40;81.56
13407;BME280;6774;48.208;10.766;2023-03-23T02:59:06;95057.59;;;8.48;81.70
13407;BME280;6774;48.208;10.766;2023-03-23T03:01:50;95054.22;;;8.54;81.02
13407;BME280;6774;48.208;10.766;2023-03-23T03:04:23;95043.94;;;8.59;80.84
13407;BME280;6774;48.208;10.766;2023-03-23T03:07:02;95034.81;;;8.76;79.92
13407;BME280;6774;48.208;10.766;2023-03-23T03:09:41;95039.31;;;9.04;78.61
13407;BME280;6774;48.208;10.766;2023-03-23T03:12:13;95036.81;;;9.17;77.73
13407;BME280;6774;48.208;10.766;2023-03-23T03:14:48;95045.63;;;9.31;77.21
13407;BME280;6774;48.208;10.766;2023-03-23T03:17:20;95049.94;;;9.38;77.03
13407;BME280;6774;48.208;10.766;2023-03-23T03:19:54;95045.50;;;9.39;77.41
13407;BME280;6774;48.208;10.766;2023-03-23T03:22:26;95038.53;;;9.31;77.62
13407;BME280;6774;48.208;10.766;2023-03-23T03:24:57;95036.81;;;9.17;78.55
13407;BME280;6774;48.208;10.766;2023-03-23T03:27:25;95043.06;;;8.88;79.65
13407;BME280;6774;48.208;10.766;2023-03-23T03:30:11;95053.44;;;8.96;79.45
13407;BME280;6774;48.208;10.766;2023-03-23T03:32:44;95046.72;;;8.94;79.87
13407;BME280;6774;48.208;10.766;2023-03-23T03:35:16;95056.38;;;8.87;81.23
13407;BME280;6774;48.208;10.766;2023-03-23T03:37:44;95060.47;;;8.89;81.55
13407;BME280;6774;48.208;10.766;2023-03-23T03:40:13;95051.19;;;8.93;81.55
13407;BME280;6774;48.208;10.766;2023-03-23T03:42:43;95064.22;;;9.01;81.27
13407;BME280;6774;48.208;10.766;2023-03-23T03:45:12;95063.81;;;9.04;80.80
13407;BME280;6774;48.208;10.766;2023-03-23T03:47:39;95077.06;;;8.90;81.98
13407;BME280;6774;48.208;10.766;2023-03-23T03:50:07;95077.94;;;8.97;82.28
13407;BME280;6774;48.208;10.766;2023-03-23T03:52:36;95072.06;;;9.16;80.48
13407;BME280;6774;48.208;10.766;2023-03-23T03:55:04;95074.72;;;9.44;78.37
13407;BME280;6774;48.208;10.766;2023-03-23T03:57:33;95069.56;;;9.64;77.12
13407;BME280;6774;48.208;10.766;2023-03-23T04:00:03;95071.47;;;9.77;76.50
13407;BME280;6774;48.208;10.766;2023-03-23T04:02:40;95076.84;;;9.90;75.54
13407;BME280;6774;48.208;10.766;2023-03-23T04:05:08;95072.44;;;10.04;74.71
13407;BME280;6774;48.208;10.766;2023-03-23T04:07:39;95075.16;;;10.17;74.21
13407;BME280;6774;48.208;10.766;2023-03-23T04:10:08;95074.34;;;10.16;74.80
13407;BME280;6774;48.208;10.766;2023-03-23T04:12:37;95067.38;;;10.02;76.47
13407;BME280;6774;48.208;10.766;2023-03-23T04:15:30;95068.75;;;9.91;77.35
13407;BME280;6774;48.208;10.766;2023-03-23T04:17:56;95065.25;;;9.84;77.20
13407;BME280;6774;48.208;10.766;2023-03-23T04:20:25;95076.53;;;9.72;78.37
13407;BME280;6774;48.208;10.766;2023-03-23T04:22:54;95084.19;;;9.66;78.60
13407;BME280;6774;48.208;10.766;2023-03-23T04:25:23;95072.75;;;9.53;80.00
13407;BME280;6774;48.208;10.766;2023-03-23T04:27:52;95056.16;;;9.59;79.40
13407;BME280;6774;48.208;10.766;2023-03-23T04:30:27;95053.84;;;9.77;76.51
13407;BME280;6774;48.208;10.766;2023-03-23T04:33:09;95059.09;;;9.71;78.28
13407;BME280;6774;48.208;10.766;2023-03-23T04:35:44;95065.09;;;9.92;76.43
13407;BME280;6774;48.208;10.766;2023-03-23T04:38:38;95059.72;;;10.14;75.23
13407;BME280;6774;48.208;10.766;2023-03-23T04:41:13;95061.06;;;10.31;74.57
13407;BME280;6774;48.208;10.766;2023-03-23T04:43:55;95076.50;;;10.34;74.49
13407;BME280;6774;48.208;10.766;2023-03-23T04:46:44;95079.91;;;10.28;76.14
13407;BME280;6774;48.208;10.766;2023-03-23T04:49:17;95079.19;;;10.13;77.51
13407;BME280;6774;48.208;10.766;2023-03-23T04:51:49;95043.91;;;10.07;74.97
13407;BME280;6774;48.208;10.766;2023-03-23T04:54:28;95021.44;;;10.18;74.59
13407;BME280;6774;48.208;10.766;2023-03-23T04:56:58;95007.28;;;10.32;73.88
13407;BME280;6774;48.208;10.766;2023-03-23T04:59:26;95021.75;;;10.49;72.81
13407;BME280;6774;48.208;10.766;2023-03-23T05:02:06;95025.88;;;10.72;72.01
13407;BME280;6774;48.208;10.766;2023-03-23T05:04:34;95046.91;;;10.45;74.75
13407;BME280;6774;48.208;10.766;2023-03-23T05:07:11;95038.94;;;10.32;76.38
13407;BME280;6774;48.208;10.766;2023-03-23T05:09:47;95022.56;;;10.43;76.35
13407;BME280;6774;48.208;10.766;2023-03-23T05:12:16;95020.28;;;10.27;76.74
13407;BME280;6774;48.208;10.766;2023-03-23T05:14:57;95019.19;;;10.21;77.06
13407;BME280;6774;48.208;10.766;2023-03-23T05:17:26;95027.72;;;10.17;77.21
13407;BME280;6774;48.208;10.766;2023-03-23T05:19:58;95022.59;;;10.09;77.75
13407;BME280;6774;48.208;10.766;2023-03-23T05:22:44;95026.84;;;10.10;77.86
13407;BME280;6774;48.208;10.766;2023-03-23T05:25:16;95010.09;;;10.24;75.48
13407;BME280;6774;48.208;10.766;2023-03-23T05:27:48;95001.44;;;10.37;74.73
13407;BME280;6774;48.208;10.766;2023-03-23T05:30:50;94997.44;;;10.61;73.10
13407;BME280;6774;48.208;10.766;2023-03-23T05:33:18;95000.50;;;10.71;72.33
13407;BME280;6774;48.208;10.766;2023-03-23T05:36:00;94997.03;;;10.77;71.92
13407;BME280;6774;48.208;10.766;2023-03-23T05:38:34;95007.00;;;10.81;71.43
13407;BME280;6774;48.208;10.766;2023-03-23T05:41:04;94994.25;;;10.98;70.94
13407;BME280;6774;48.208;10.766;2023-03-23T05:43:37;94982.66;;;10.99;70.68
13407;BME280;6774;48.208;10.766;2023-03-23T05:46:22;94988.94;;;11.11;70.16
13407;BME280;6774;48.208;10.766;2023-03-23T05:48:50;94984.06;;;11.15;69.95
13407;BME280;6774;48.208;10.766;2023-03-23T05:51:21;94978.78;;;11.15;69.74
13407;BME280;6774;48.208;10.766;2023-03-23T05:53:48;94990.16;;;11.29;69.65
13407;BME280;6774;48.208;10.766;2023-03-23T05:56:17;94983.44;;;11.39;69.29
13407;BME280;6774;48.208;10.766;2023-03-23T05:58:57;94993.41;;;11.44;69.65
13407;BME280;6774;48.208;10.766;2023-03-23T06:01:24;94993.00;;;11.40;69.90
13407;BME280;6774;48.208;10.766;2023-03-23T06:03:51;94988.13;;;11.44;69.87
13407;BME280;6774;48.208;10.766;2023-03-23T06:06:23;94982.84;;;11.44;69.98
13407;BME280;6774;48.208;10.766;2023-03-23T06:08:56;94989.34;;;11.35;71.14
13407;BME280;6774;48.208;10.766;2023-03-23T06:11:38;94998.31;;;11.07;73.39
13407;BME280;6774;48.208;10.766;2023-03-23T06:14:23;95003.19;;;11.17;73.29
13407;BME280;6774;48.208;10.766;2023-03-23T06:16:51;95006.41;;;11.06;74.40
13407;BME280;6774;48.208;10.766;2023-03-23T06:19:17;95003.19;;;11.10;74.36
13407;BME280;6774;48.208;10.766;2023-03-23T06:21:54;94999.09;;;11.15;74.16
13407;BME280;6774;48.208;10.766;2023-03-23T06:24:46;95012.50;;;11.13;75.31
13407;BME280;6774;48.208;10.766;2023-03-23T06:27:20;95008.25;;;11.19;75.36
13407;BME280;6774;48.208;10.766;2023-03-23T06:29:47;95003.97;;;11.24;75.21
13407;BME280;6774;48.208;10.766;2023-03-23T06:32:14;95008.44;;;11.24;75.22
13407;BME280;6774;48.208;10.766;2023-03-23T06:34:42;95008.69;;;11.16;75.34
13407;BME280;6774;48.208;10.766;2023-03-23T06:37:41;95007.66;;;11.36;74.50
13407;BME280;6774;48.208;10.766;2023-03-23T06:40:28;95011.69;;;11.46;74.26
13407;BME280;6774;48.208;10.766;2023-03-23T06:42:57;95006.00;;;11.55;73.06
13407;BME280;6774;48.208;10.766;2023-03-23T06:45:44;95009.66;;;11.54;73.91
13407;BME280;6774;48.208;10.766;2023-03-23T06:48:30;95013.88;;;11.68;74.01
13407;BME280;6774;48.208;10.766;2023-03-23T06:50:58;95006.34;;;11.79;74.21
13407;BME280;6774;48.208;10.766;2023-03-23T06:53:26;95008.41;;;11.90;74.12
13407;BME280;6774;48.208;10.766;2023-03-23T06:55:55;95011.00;;;12.03;73.66
13407;BME280;6774;48.208;10.766;2023-03-23T06:58:26;95012.44;;;11.99;74.32
13407;BME280;6774;48.208;10.766;2023-03-23T07:00:54;95015.31;;;11.84;75.23
13407;BME280;6774;48.208;10.766;2023-03-23T07:03:30;95007.72;;;12.08;74.50
13407;BME280;6774;48.208;10.766;2023-03-23T07:05:58;95008.72;;;12.07;74.70
13407;BME280;6774;48.208;10.766;2023-03-23T07:08:28;95006.03;;;12.27;74.13
13407;BME280;6774;48.208;10.766;2023-03-23T07:10:56;95006.56;;;12.42;73.69
13407;BME280;6774;48.208;10.766;2023-03-23T07:13:27;95005.69;;;12.55;72.97
13407;BME280;6774;48.208;10.766;2023-03-23T07:15:58;95007.66;;;12.66;72.53
13407;BME280;6774;48.208;10.766;2023-03-23T07:18:25;95012.47;;;12.82;72.04
13407;BME280;6774;48.208;10.766;2023-03-23T07:20:54;95001.63;;;12.90;71.34
13407;BME280;6774;48.208;10.766;2023-03-23T07:23:26;95013.59;;;12.93;71.54
13407;BME280;6774;48.208;10.766;2023-03-23T07:26:00;95007.84;;;13.02;70.91
13407;BME280;6774;48.208;10.766;2023-03-23T07:28:38;95013.72;;;13.04;71.25
13407;BME280;6774;48.208;10.766;2023-03-23T07:31:17;95014.44;;;13.18;70.75
13407;BME280;6774;48.208;10.766;2023-03-23T07:33:45;95014.59;;;13.30;71.28
13407;BME280;6774;48.208;10.766;2023-03-23T07:36:12;95012.03;;;13.42;70.46
13407;BME280;6774;48.208;10.766;2023-03-23T07:38:40;95016.19;;;13.56;69.68
13407;BME280;6774;48.208;10.766;2023-03-23T07:41:07;95016.34;;;13.61;69.13
13407;BME280;6774;48.208;10.766;2023-03-23T07:43:35;95009.69;;;13.77;68.33
13407;BME280;6774;48.208;10.766;2023-03-23T07:46:30;95016.53;;;13.84;65.18
13407;BME280;6774;48.208;10.766;2023-03-23T07:49:09;95022.44;;;14.05;65.04
13407;BME280;6774;48.208;10.766;2023-03-23T07:51:41;95021.28;;;14.19;65.07
13407;BME280;6774;48.208;10.766;2023-03-23T07:54:11;95026.41;;;14.32;65.06
13407;BME280;6774;48.208;10.766;2023-03-23T07:56:52;95032.59;;;14.44;64.65
13407;BME280;6774;48.208;10.766;2023-03-23T07:59:25;95029.94;;;14.63;65.17
13407;BME280;6774;48.208;10.766;2023-03-23T08:01:54;95022.13;;;14.68;65.33
13407;BME280;6774;48.208;10.766;2023-03-23T08:04:31;95035.03;;;14.94;64.62
13407;BME280;6774;48.208;10.766;2023-03-23T08:07:11;95037.16;;;15.04;63.30
13407;BME280;6774;48.208;10.766;2023-03-23T08:09:45;95032.91;;;15.15;63.48
13407;BME280;6774;48.208;10.766;2023-03-23T08:12:37;95032.16;;;15.38;62.22
13407;BME280;6774;48.208;10.766;2023-03-23T08:15:18;95035.06;;;15.59;61.84
13407;BME280;6774;48.208;10.766;2023-03-23T08:18:17;95032.13;;;15.91;60.01
13407;BME280;6774;48.208;10.766;2023-03-23T08:21:04;95038.34;;;15.85;60.82
13407;BME280;6774;48.208;10.766;2023-03-23T08:23:45;95039.91;;;16.33;59.32
13407;BME280;6774;48.208;10.766;2023-03-23T08:26:25;95041.81;;;16.20;59.07
13407;BME280;6774;48.208;10.766;2023-03-23T08:29:23;95039.19;;;16.49;60.09
13407;BME280;6774;48.208;10.766;2023-03-23T08:32:00;95041.25;;;16.70;58.63
13407;BME280;6774;48.208;10.766;2023-03-23T08:34:47;95050.03;;;16.83;55.40
13407;BME280;6774;48.208;10.766;2023-03-23T08:37:40;95058.00;;;17.11;56.57
13407;BME280;6774;48.208;10.766;2023-03-23T08:40:26;95063.84;;;16.96;54.05
13407;BME280;6774;48.208;10.766;2023-03-23T08:43:17;95072.03;;;17.06;53.12
13407;BME280;6774;48.208;10.766;2023-03-23T08:46:16;95060.28;;;17.19;51.30
13407;BME280;6774;48.208;10.766;2023-03-23T08:48:53;95072.56;;;17.20;51.60
13407;BME280;6774;48.208;10.766;2023-03-23T08:51:40;95076.84;;;16.93;52.31
13407;BME280;6774;48.208;10.766;2023-03-23T08:54:16;95086.28;;;17.12;52.57
13407;BME280;6774;48.208;10.766;2023-03-23T08:57:09;95069.16;;;17.25;52.84
13407;BME280;6774;48.208;10.766;2023-03-23T09:00:11;95083.25;;;17.09;52.12
13407;BME280;6774;48.208;10.766;2023-03-23T09:03:18;95065.94;;;17.23;53.23
13407;BME280;6774;48.208;10.766;2023-03-23T09:06:03;95076.38;;;17.24;52.17
13407;BME280;6774;48.208;10.766;2023-03-23T09:08:44;95067.41;;;17.30;52.94
13407;BME280;6774;48.208;10.766;2023-03-23T09:11:11;95067.97;;;17.32;53.01
13407;BME280;6774;48.208;10.766;2023-03-23T09:13:38;95061.69;;;17.55;51.46
13407;BME280;6774;48.208;10.766;2023-03-23T09:16:06;95079.13;;;17.46;51.91
13407;BME280;6774;48.208;10.766;2023-03-23T09:18:33;95077.28;;;17.75;52.02
13407;BME280;6774;48.208;10.766;2023-03-23T09:21:01;95084.22;;;17.93;51.64
13407;BME280;6774;48.208;10.766;2023-03-23T09:23:29;95076.84;;;18.00;52.40
13407;BME280;6774;48.208;10.766;2023-03-23T09:25:57;95095.03;;;18.20;51.38
13407;BME280;6774;48.208;10.766;2023-03-23T09:28:25;95091.44;;;18.48;51.17
13407;BME280;6774;48.208;10.766;2023-03-23T09:30:54;95089.75;;;18.64;50.50
13407;BME280;6774;48.208;10.766;2023-03-23T09:33:22;95092.00;;;18.33;52.55
13407;BME280;6774;48.208;10.766;2023-03-23T09:35:49;95091.59;;;18.03;53.01
13407;BME280;6774;48.208;10.766;2023-03-23T09:38:16;95085.59;;;17.96;52.96
13407;BME280;6774;48.208;10.766;2023-03-23T09:40:46;95088.16;;;17.90;51.06
13407;BME280;6774;48.208;10.766;2023-03-23T09:43:31;95090.97;;;17.67;54.44
13407;BME280;6774;48.208;10.766;2023-03-23T09:46:11;95092.59;;;17.68;50.57
13407;BME280;6774;48.208;10.766;2023-03-23T09:48:47;95092.16;;;17.43;53.26
13407;BME280;6774;48.208;10.766;2023-03-23T09:51:28;95093.75;;;17.72;53.98
13407;BME280;6774;48.208;10.766;2023-03-23T09:54:01;95100.25;;;17.48;53.56
13407;BME280;6774;48.208;10.766;2023-03-23T09:56:31;95100.84;;;17.21;53.37
13407;BME280;6774;48.208;10.766;2023-03-23T09:59:03;95104.94;;;17.41;54.02
13407;BME280;6774;48.208;10.766;2023-03-23T10:01:43;95107.91;;;17.73;52.86
13407;BME280;6774;48.208;10.766;2023-03-23T10:04:15;95097.84;;;17.63;51.99
13407;BME280;6774;48.208;10.766;2023-03-23T10:06:45;95095.94;;;17.75;52.32
13407;BME280;6774;48.208;10.766;2023-03-23T10:09:16;95092.38;;;17.86;53.50
13407;BME280;6774;48.208;10.766;2023-03-23T10:11:53;95099.91;;;17.89;52.80
13407;BME280;6774;48.208;10.766;2023-03-23T10:14:52;95105.00;;;17.74;52.54
13407;BME280;6774;48.208;10.766;2023-03-23T10:17:26;95108.50;;;17.63;52.07
13407;BME280;6774;48.208;10.766;2023-03-23T10:20:01;95088.44;;;17.44;54.00
13407;BME280;6774;48.208;10.766;2023-03-23T10:22:39;95105.63;;;17.81;53.86
13407;BME280;6774;48.208;10.766;2023-03-23T10:25:15;95103.38;;;18.07;54.02
13407;BME280;6774;48.208;10.766;2023-03-23T10:27:45;95106.44;;;18.32;53.06
13407;BME280;6774;48.208;10.766;2023-03-23T10:30:20;95103.31;;;18.57;53.27
13407;BME280;6774;48.208;10.766;2023-03-23T10:32:52;95104.59;;;18.55;52.77
13407;BME280;6774;48.208;10.766;2023-03-23T10:35:24;95108.44;;;18.64;52.43
13407;BME280;6774;48.208;10.766;2023-03-23T10:37:58;95110.63;;;18.84;52.75
13407;BME280;6774;48.208;10.766;2023-03-23T10:40:29;95102.97;;;18.70;52.24
13407;BME280;6774;48.208;10.766;2023-03-23T10:42:57;95104.09;;;18.74;52.67
13407;BME280;6774;48.208;10.766;2023-03-23T10:45:27;95094.06;;;18.65;51.23
13407;BME280;6774;48.208;10.766;2023-03-23T10:47:57;95097.75;;;18.64;50.56
13407;BME280;6774;48.208;10.766;2023-03-23T10:50:29;95089.28;;;18.67;51.00
13407;BME280;6774;48.208;10.766;2023-03-23T10:52:58;95098.13;;;18.67;51.61
13407;BME280;6774;48.208;10.766;2023-03-23T10:55:36;95088.56;;;18.93;51.66
13407;BME280;6774;48.208;10.766;2023-03-23T10:58:05;95093.38;;;18.96;51.23
13407;BME280;6774;48.208;10.766;2023-03-23T11:00:40;95098.31;;;19.04;51.78
13407;BME280;6774;48.208;10.766;2023-03-23T11:03:23;95091.78;;;18.95;52.89
13407;BME280;6774;48.208;10.766;2023-03-23T11:05:53;95090.13;;;18.51;53.47
13407;BME280;6774;48.208;10.766;2023-03-23T11:08:22;95085.19;;;18.81;51.22
13407;BME280;6774;48.208;10.766;2023-03-23T11:10:52;95101.47;;;18.80;51.88
13407;BME280;6774;48.208;10.766;2023-03-23T11:13:20;95078.88;;;18.92;52.28
13407;BME280;6774;48.208;10.766;2023-03-23T11:15:49;95085.69;;;19.27;50.66
13407;BME280;6774;48.208;10.766;2023-03-23T11:18:19;95091.97;;;18.89;50.65
13407;BME280;6774;48.208;10.766;2023-03-23T11:20:48;95094.38;;;18.90;50.94
13407;BME280;6774;48.208;10.766;2023-03-23T11:23:20;95095.06;;;19.02;48.62
13407;BME280;6774;48.208;10.766;2023-03-23T11:25:58;95093.75;;;18.44;51.78
13407;BME280;6774;48.208;10.766;2023-03-23T11:28:29;95098.19;;;18.56;49.63
13407;BME280;6774;48.208;10.766;2023-03-23T11:31:00;95104.44;;;18.44;50.84
13407;BME280;6774;48.208;10.766;2023-03-23T11:33:35;95102.22;;;18.19;52.82
13407;BME280;6774;48.208;10.766;2023-03-23T11:36:04;95121.31;;;18.28;52.83
13407;BME280;6774;48.208;10.766;2023-03-23T11:38:32;95105.75;;;18.42;51.21
13407;BME280;6774;48.208;10.766;2023-03-23T11:41:00;95095.50;;;18.56;51.78
13407;BME280;6774;48.208;10.766;2023-03-23T11:43:26;95104.41;;;18.61;51.87
13407;BME280;6774;48.208;10.766;2023-03-23T11:46:04;95106.00;;;18.40;53.19
13407;BME280;6774;48.208;10.766;2023-03-23T11:48:38;95099.44;;;17.93;54.24
13407;BME280;6774;48.208;10.766;2023-03-23T11:51:11;95101.66;;;18.01;54.67
13407;BME280;6774;48.208;10.766;2023-03-23T11:53:46;95109.66;;;17.67;54.48
13407;BME280;6774;48.208;10.766;2023-03-23T11:56:22;95104.78;;;17.47;54.62
13407;BME280;6774;48.208;10.766;2023-03-23T11:58:49;95103.00;;;17.53;55.01
13407;BME280;6774;48.208;10.766;2023-03-23T12:01:26;95102.47;;;17.68;56.27
13407;BME280;6774;48.208;10.766;2023-03-23T12:04:16;95102.25;;;17.86;54.94
13407;BME280;6774;48.208;10.766;2023-03-23T12:06:51;95089.16;;;17.84;54.88
13407;BME280;6774;48.208;10.766;2023-03-23T12:09:30;95112.28;;;17.79;53.86
13407;BME280;6774;48.208;10.766;2023-03-23T12:12:07;95104.44;;;17.44;54.95
13407;BME280;6774;48.208;10.766;2023-03-23T12:14:43;95100.13;;;17.71;53.78
13407;BME280;6774;48.208;10.766;2023-03-23T12:17:22;95096.13;;;17.85;54.17
13407;BME280;6774;48.208;10.766;2023-03-23T12:20:00;95098.94;;;17.96;53.53
13407;BME280;6774;48.208;10.766;2023-03-23T12:22:42;95099.50;;;17.98;54.30
13407;BME280;6774;48.208;10.766;2023-03-23T12:25:33;95095.38;;;18.07;54.55
13407;BME280;6774;48.208;10.766;2023-03-23T12:28:14;95098.75;;;18.19;54.51
13407;BME280;6774;48.208;10.766;2023-03-23T12:30:49;95093.84;;;18.11;54.29
13407;BME280;6774;48.208;10.766;2023-03-23T12:33:28;95088.41;;;18.44;51.81
13407;BME280;6774;48.208;10.766;2023-03-23T12:36:08;95090.28;;;18.83;52.93
13407;BME280;6774;48.208;10.766;2023-03-23T12:39:05;95084.75;;;18.67;52.54
13407;BME280;6774;48.208;10.766;2023-03-23T12:41:41;95088.13;;;18.41;53.24
13407;BME280;6774;48.208;10.766;2023-03-23T12:44:13;95080.03;;;18.19;53.88
13407;BME280;6774;48.208;10.766;2023-03-23T12:46:55;95085.31;;;18.53;52.43
13407;BME280;6774;48.208;10.766;2023-03-23T12:49:31;95076.81;;;18.17;52.74
13407;BME280;6774;48.208;10.766;2023-03-23T12:52:04;95090.41;;;18.54;52.87
13407;BME280;6774;48.208;10.766;2023-03-23T12:54:39;95084.00;;;18.72;53.06
13407;BME280;6774;48.208;10.766;2023-03-23T12:57:14;95096.44;;;18.44;51.43
13407;BME280;6774;48.208;10.766;2023-03-23T12:59:47;95087.28;;;18.02;53.96
13407;BME280;6774;48.208;10.766;2023-03-23T13:02:20;95083.81;;;17.84;53.41
13407;BME280;6774;48.208;10.766;2023-03-23T13:04:51;95079.91;;;18.09;54.11
13407;BME280;6774;48.208;10.766;2023-03-23T13:07:22;95073.41;;;18.38;52.41
13407;BME280;6774;48.208;10.766;2023-03-23T13:09:55;95069.28;;;18.31;53.61
13407;BME280;6774;48.208;10.766;2023-03-23T13:12:26;95060.19;;;17.76;54.15
13407;BME280;6774;48.208;10.766;2023-03-23T13:15:01;95057.09;;;18.01;53.08
13407;BME280;6774;48.208;10.766;2023-03-23T13:17:37;95053.16;;;18.04;53.12
13407;BME280;6774;48.208;10.766;2023-03-23T13:20:34;95075.31;;;17.87;51.70
13407;BME280;6774;48.208;10.766;2023-03-23T13:23:08;95070.78;;;17.71;53.02
13407;BME280;6774;48.208;10.766;2023-03-23T13:25:48;95056.06;;;17.85;54.27
13407;BME280;6774;48.208;10.766;2023-03-23T13:28:16;95068.75;;;18.12;52.57
13407;BME280;6774;48.208;10.766;2023-03-23T13:30:57;95063.56;;;18.22;53.05
13407;BME280;6774;48.208;10.766;2023-03-23T13:33:24;95052.88;;;18.22;54.21
13407;BME280;6774;48.208;10.766;2023-03-23T13:35:53;95051.13;;;18.11;53.76
13407;BME280;6774;48.208;10.766;2023-03-23T13:38:23;95053.13;;;18.42;52.69
13407;BME280;6774;48.208;10.766;2023-03-23T13:40:52;95048.97;;;18.52;51.34